logo
App data

Cavern Kings

Cavern Kings is an infinite action platformer designed to make every playthrough unique and interesting. Cavern Kings aims to explode with special effects in classical arcade fashion and create interesting synergies with its powerup system.
Store | Hub | SteamDB | Site
Developer: Vine Publisher: Vine
Genre: Action, Casual, Indie, Early Access
Languages: English
Tags: Indie (36), Early Access (35), Casual (34), Action (33), Rogue-like (17), Pixel Graphics (17), Platformer (11), Rogue-lite (5)
Category: Single-player, Multi-player, Co-op, Shared/Split Screen, Full controller support, Steam Trading Cards, Steam Cloud, Remote Play Together
Release date: Sep 30, 2014
Price: $9.99
Old userscore: 69% Owners: 20,000 .. 50,000
Followers: 1,699
Peak concurrent players yesterday: 1

Steam Spy is still in beta, so expect major bugs.

Owners data:

Access restricted.

This feature is only available to users with special access rights. Sorry.

If you want to proceed, you need to register or log in first and then back Steam Spy on Patreon. Look for Indie or Pro pledge.

Don't forget to use the same email as on Steam Spy!

Audience in 2 weeks:

Access restricted.

This feature is only available to users with special access rights. Sorry.

If you want to proceed, you need to register or log in first and then back Steam Spy on Patreon. Look for Indie or Pro pledge.

Don't forget to use the same email as on Steam Spy!

Peak daily concurrent players:

CCU data courtesy of SteamDB. Used with permission.

Hourly concurrent players:

Daily Twitch stats:

Hourly Twitch stats:

Followers over time

Access restricted.

This feature is only available to users with special access rights. Sorry.

If you want to proceed, you need to register or log in first and then back Steam Spy on Patreon. Look for Indie or Pro pledge.

Don't forget to use the same email as on Steam Spy!

Views for top 50 videos on YouTube for this game:

Games similar to this one:

# Game Release date
Price
Score rank
(Userscore / Metascore)
Owners
Players
Playtime (Median)
1 Old Man's Journey May 17, 2017 $7.99N/A (N/A/76%)100,000 .. 200,0000%00:00 (00:00)
2 Evertown Jan 30, 2020 $1.99N/A (N/A)0 .. 20,0000%00:00 (00:00)
3 Mini Thief Oct 12, 2018 $3.99N/A (N/A)20,000 .. 50,0000%00:00 (00:00)
4 Ben and Ed - Blood Party Feb 13, 2018 $14.99N/A (N/A)50,000 .. 100,0000%00:00 (00:00)
5 Really Big Sky Feb 24, 2012 $4.99N/A (N/A)500,000 .. 1,000,0000%00:00 (00:00)
6 Bad Hotel Oct 16, 2013 $4.99N/A (N/A)50,000 .. 100,0000%00:00 (00:00)
7 Titan Attacks! Feb 3, 2012 $9.99N/A (N/A)50,000 .. 100,0000%00:00 (00:00)
8 Rush Bros. May 24, 2013 $9.99N/A (N/A)100,000 .. 200,0000%00:00 (00:00)
9 Lumino City Dec 2, 2014 $12.99N/A (N/A/70%)200,000 .. 500,0000%00:00 (00:00)
10 Super Puzzle Platformer Deluxe May 24, 2013 $7.99N/A (N/A)20,000 .. 50,0000%00:00 (00:00)
11 Unmechanical Aug 8, 2012 $9.99N/A (N/A/74%)100,000 .. 200,0000%00:00 (00:00)
12 The Novelist Dec 10, 2013 $4.99N/A (N/A/66%)100,000 .. 200,0000%00:00 (00:00)
13 Sugar Cube: Bittersweet Factory Nov 7, 2012 $6.99N/A (N/A)0 .. 20,0000%00:00 (00:00)
14 Montague's Mount Nov 19, 2013 $4.99N/A (N/A/39%)20,000 .. 50,0000%00:00 (00:00)
15 Party of Sin Dec 13, 2012 $5.99N/A (N/A)50,000 .. 100,0000%00:00 (00:00)
16 The Wonderful End of the World Jan 25, 2008 $9.99N/A (N/A/69%)100,000 .. 200,0000%00:00 (00:00)
17 Transcripted $7.99N/A (N/A/78%)0 .. 20,0000%00:00 (00:00)
18 Madballs in Babo:Invasion Sep 17, 2009 $4.99N/A (N/A/79%)50,000 .. 100,0000%00:00 (00:00)
19 Ultratron Mar 18, 2013 $9.99N/A (N/A)100,000 .. 200,0000%00:00 (00:00)
20 Critter Crunch Sep 11, 2012 $6.99N/A (N/A)20,000 .. 50,0000%00:00 (00:00)
21 Retro/Grade Mar 20, 2013 $9.99N/A (N/A)50,000 .. 100,0000%00:00 (00:00)
22 RONIN Jun 30, 2015 $12.99N/A (N/A/70%)100,000 .. 200,0000%00:00 (00:00)
23 Rhythm Destruction Jun 16, 2014 $4.99N/A (N/A)50,000 .. 100,0000%00:00 (00:00)
24 Canyon Capers Apr 25, 2014 $6.99N/A (N/A)200,000 .. 500,0000%00:00 (00:00)
25 Team Indie Oct 8, 2014 N/AN/A (N/A)50,000 .. 100,0000%00:00 (00:00)
26 Warring States Jan 29, 2018 $18.99N/A (N/A)0 .. 20,0000%00:00 (00:00)
27 Concursion Jun 6, 2014 $4.99N/A (N/A/66%)20,000 .. 50,0000%00:00 (00:00)
28 Rabbit Hole 3D: Steam Edition Apr 25, 2014 $2.99N/A (N/A)50,000 .. 100,0000%00:00 (00:00)
29 Echo of the Wilds Jun 10, 2014 $6.99N/A (N/A)0 .. 20,0000%00:00 (00:00)
30 ReignMaker Apr 16, 2014 $14.99N/A (N/A)50,000 .. 100,0000%00:00 (00:00)
31 Oblitus Feb 27, 2015 $14.99N/A (N/A/69%)20,000 .. 50,0000%00:00 (00:00)
32 Volt Apr 14, 2014 $0.99N/A (N/A)100,000 .. 200,0000%00:00 (00:00)
33 Ballpoint Universe - Infinite Dec 17, 2013 $3.99N/A (N/A)50,000 .. 100,0000%00:00 (00:00)
34 Three Dead Zed Jul 7, 2014 $5.99N/A (N/A)50,000 .. 100,0000%00:00 (00:00)
35 NaissanceE Feb 13, 2014 FreeN/A (N/A/66%)100,000 .. 200,0000%00:00 (00:00)
36 Road Not Taken Aug 5, 2014 $14.99N/A (N/A/75%)50,000 .. 100,0000%00:00 (00:00)
37 //N.P.P.D. RUSH//- The milk of Ultraviolet Feb 13, 2014 $3.99N/A (N/A)100,000 .. 200,0000%00:00 (00:00)
38 6180 the moon Sep 19, 2014 $3.99N/A (N/A)0 .. 20,0000%00:00 (00:00)
39 Super Treasure Arena Dec 24, 2018 $7.99N/A (N/A)0 .. 20,0000%00:00 (00:00)
40 ONE DAY for Ched Sep 12, 2014 $3.99N/A (N/A)20,000 .. 50,0000%00:00 (00:00)
41 Ukrainian Ninja Dec 23, 2014 FreeN/A (N/A)20,000 .. 50,0000%00:00 (00:00)
42 The Sun and Moon Nov 14, 2014 $6.99N/A (N/A)20,000 .. 50,0000%00:00 (00:00)
43 It came from space and ate our brains Mar 19, 2015 $14.99N/A (N/A)200,000 .. 500,0000%00:00 (00:00)
44 Instant Dungeon! Nov 25, 2014 $1.99N/A (N/A)0 .. 20,0000%00:00 (00:00)
45 Disillusions Manga Horror Apr 6, 2013 $0.99N/A (N/A)20,000 .. 50,0000%00:00 (00:00)
46 Master Spy Sep 8, 2015 $9.99N/A (N/A/68%)50,000 .. 100,0000%00:00 (00:00)
47 Super Galaxy Squadron EX Turbo Mar 6, 2017 $9.99N/A (N/A)50,000 .. 100,0000%00:00 (00:00)
48 Grass Simulator Apr 1, 2015 $4.99N/A (N/A)20,000 .. 50,0000%00:00 (00:00)
49 OTTTD Aug 6, 2014 $7.99N/A (N/A)50,000 .. 100,0000%00:00 (00:00)
50 Cherry Tree High I! My! Girls! Nov 20, 2014 $3.99N/A (N/A)20,000 .. 50,0000%00:00 (00:00)
51 The Masterplan Jun 4, 2015 $19.99N/A (N/A/68%)100,000 .. 200,0000%00:00 (00:00)
52 A Druid's Duel Feb 25, 2015 $7.99N/A (N/A/70%)0 .. 20,0000%00:00 (00:00)
53 Velocibox Sep 8, 2014 $4.99N/A (N/A)50,000 .. 100,0000%00:00 (00:00)
54 Bermuda Mar 17, 2015 $2.99N/A (N/A)50,000 .. 100,0000%00:00 (00:00)
55 Chariot Nov 12, 2014 $14.99N/A (N/A/76%)50,000 .. 100,0000%00:00 (00:00)
56 Orbit HD Mar 18, 2015 $1.99N/A (N/A)20,000 .. 50,0000%00:00 (00:00)
57 Season of 12 Colors Mar 14, 2016 $2.99N/A (N/A)20,000 .. 50,00016.67%00:30 (00:10)
58 One More Line Aug 25, 2015 $2.99N/A (N/A)20,000 .. 50,0000%00:00 (00:00)
59 Stray Cat Crossing Aug 28, 2015 $2.99N/A (N/A)20,000 .. 50,0000%00:00 (00:00)
60 Inside My Radio May 11, 2015 $14.99N/A (N/A/68%)20,000 .. 50,0000%00:00 (00:00)
61 1979 Revolution: Black Friday Apr 4, 2016 $9.99N/A (N/A/80%)50,000 .. 100,0000%00:00 (00:00)
62 Canabalt Apr 30, 2015 $2.99N/A (N/A)20,000 .. 50,0000%00:00 (00:00)
63 I and Me May 4, 2016 $9.99N/A (N/A)0 .. 20,0000%00:00 (00:00)
64 Choice Chamber Jul 16, 2015 $9.99N/A (N/A)50,000 .. 100,0000%00:00 (00:00)
65 That Dragon, Cancer Jan 11, 2016 $9.99N/A (N/A/78%)50,000 .. 100,0000%00:00 (00:00)
66 Spellsworn Mar 13, 2018 FreeN/A (N/A)100,000 .. 200,0000%00:00 (00:00)
67 Star Horizon May 15, 2020 $9.99N/A (N/A)0 .. 20,0000%00:00 (00:00)
68 Lumini Sep 3, 2015 $12.99N/A (N/A/69%)0 .. 20,0000%00:00 (00:00)
69 NEO AQUARIUM - The King of Crustaceans - Jun 8, 2015 $8.99N/A (N/A)50,000 .. 100,0000%00:00 (00:00)
70 Vernon's Legacy Sep 23, 2016 $11.99N/A (N/A)0 .. 20,0000%00:00 (00:00)
71 Beyond Eyes Aug 11, 2015 $14.99N/A (N/A/60%)100,000 .. 200,0000%00:00 (00:00)
72 Polyball Dec 1, 2017 $14.99N/A (N/A)100,000 .. 200,0000.78%00:01 (00:00)

Tags over time:

Access restricted.

This feature is only available to users with special access rights. Sorry.

If you want to proceed, you need to register or log in first and then back Steam Spy on Patreon. Look for Indie or Pro pledge.

Don't forget to use the same email as on Steam Spy!

Owners of this game also own:

Access restricted.

This feature is only available to users with special access rights. Sorry.

If you want to proceed, you need to register or log in first and then back Steam Spy on Patreon. Look for Indie or Pro pledge.

Don't forget to use the same email as on Steam Spy!

Playtime distribution:

Access restricted.

This feature is only available to users with special access rights. Sorry.

If you want to proceed, you need to register or log in first and then back Steam Spy on Patreon. Look for Indie or Pro pledge.

Don't forget to use the same email as on Steam Spy!

Playtime (2 weeks):

Access restricted.

This feature is only available to users with special access rights. Sorry.

If you want to proceed, you need to register or log in first and then back Steam Spy on Patreon. Look for Indie or Pro pledge.

Don't forget to use the same email as on Steam Spy!

User reviews:

Login required.

Please register or log in to see this information.